sensor_id;sensor_type;location;lat;lon;timestamp;P1;durP1;ratioP1;P2;durP2;ratioP2
58015;SDS011;43809;52.110;20.964;2023-06-26T00:00:43;3.50;;;2.50;;
58015;SDS011;43809;52.110;20.964;2023-06-26T00:02:43;3.30;;;2.20;;
58015;SDS011;43809;52.110;20.964;2023-06-26T00:04:43;3.35;;;2.30;;
58015;SDS011;43809;52.110;20.964;2023-06-26T00:06:44;2.83;;;2.17;;
58015;SDS011;43809;52.110;20.964;2023-06-26T00:08:44;2.00;;;1.80;;
58015;SDS011;43809;52.110;20.964;2023-06-26T00:10:44;3.22;;;2.33;;
58015;SDS011;43809;52.110;20.964;2023-06-26T00:12:46;2.30;;;2.10;;
58015;SDS011;43809;52.110;20.964;2023-06-26T00:17:24;2.58;;;2.33;;
58015;SDS011;43809;52.110;20.964;2023-06-26T00:19:24;2.60;;;2.30;;
58015;SDS011;43809;52.110;20.964;2023-06-26T00:21:24;2.88;;;2.15;;
58015;SDS011;43809;52.110;20.964;2023-06-26T00:23:36;2.30;;;2.05;;
58015;SDS011;43809;52.110;20.964;2023-06-26T00:25:39;2.08;;;1.73;;
58015;SDS011;43809;52.110;20.964;2023-06-26T00:27:39;3.60;;;2.10;;
58015;SDS011;43809;52.110;20.964;2023-06-26T00:29:39;2.37;;;1.93;;
58015;SDS011;43809;52.110;20.964;2023-06-26T00:31:40;2.38;;;1.95;;
58015;SDS011;43809;52.110;20.964;2023-06-26T00:33:41;2.50;;;2.05;;
58015;SDS011;43809;52.110;20.964;2023-06-26T00:35:41;3.50;;;2.27;;
58015;SDS011;43809;52.110;20.964;2023-06-26T00:37:41;2.90;;;2.53;;
58015;SDS011;43809;52.110;20.964;2023-06-26T00:39:41;3.83;;;2.20;;
58015;SDS011;43809;52.110;20.964;2023-06-26T00:41:41;3.13;;;2.25;;
58015;SDS011;43809;52.110;20.964;2023-06-26T00:43:50;3.80;;;2.63;;
58015;SDS011;43809;52.110;20.964;2023-06-26T00:45:50;3.38;;;2.10;;
58015;SDS011;43809;52.110;20.964;2023-06-26T00:47:51;3.95;;;2.20;;
58015;SDS011;43809;52.110;20.964;2023-06-26T00:49:51;2.10;;;1.87;;
58015;SDS011;43809;52.110;20.964;2023-06-26T00:51:51;2.33;;;2.13;;
58015;SDS011;43809;52.110;20.964;2023-06-26T00:53:52;4.10;;;2.20;;
58015;SDS011;43809;52.110;20.964;2023-06-26T00:55:53;3.50;;;2.33;;
58015;SDS011;43809;52.110;20.964;2023-06-26T00:57:54;5.10;;;4.00;;
58015;SDS011;43809;52.110;20.964;2023-06-26T00:59:55;6.85;;;4.32;;
58015;SDS011;43809;52.110;20.964;2023-06-26T01:01:55;4.10;;;3.35;;
58015;SDS011;43809;52.110;20.964;2023-06-26T01:03:55;3.92;;;3.33;;
58015;SDS011;43809;52.110;20.964;2023-06-26T01:05:58;3.50;;;2.88;;
58015;SDS011;43809;52.110;20.964;2023-06-26T01:07:59;3.28;;;2.80;;
58015;SDS011;43809;52.110;20.964;2023-06-26T01:09:59;2.40;;;1.77;;
58015;SDS011;43809;52.110;20.964;2023-06-26T01:11:59;3.00;;;2.47;;
58015;SDS011;43809;52.110;20.964;2023-06-26T01:14:00;4.03;;;2.67;;
58015;SDS011;43809;52.110;20.964;2023-06-26T01:16:01;3.92;;;2.88;;
58015;SDS011;43809;52.110;20.964;2023-06-26T01:18:02;5.18;;;3.17;;
58015;SDS011;43809;52.110;20.964;2023-06-26T01:20:04;7.30;;;4.28;;
58015;SDS011;43809;52.110;20.964;2023-06-26T01:22:17;7.22;;;4.78;;
58015;SDS011;43809;52.110;20.964;2023-06-26T01:24:19;7.35;;;5.05;;
58015;SDS011;43809;52.110;20.964;2023-06-26T01:26:28;5.55;;;4.25;;
58015;SDS011;43809;52.110;20.964;2023-06-26T01:28:41;5.97;;;4.15;;
58015;SDS011;43809;52.110;20.964;2023-06-26T01:30:42;4.53;;;3.55;;
58015;SDS011;43809;52.110;20.964;2023-06-26T01:32:43;3.92;;;3.05;;
58015;SDS011;43809;52.110;20.964;2023-06-26T01:34:44;3.47;;;2.97;;
58015;SDS011;43809;52.110;20.964;2023-06-26T01:36:46;4.18;;;2.88;;
58015;SDS011;43809;52.110;20.964;2023-06-26T01:38:47;4.10;;;2.65;;
58015;SDS011;43809;52.110;20.964;2023-06-26T01:40:47;3.03;;;2.57;;
58015;SDS011;43809;52.110;20.964;2023-06-26T01:42:47;3.03;;;2.67;;
58015;SDS011;43809;52.110;20.964;2023-06-26T01:44:53;2.90;;;2.30;;
58015;SDS011;43809;52.110;20.964;2023-06-26T01:46:59;4.35;;;2.85;;
58015;SDS011;43809;52.110;20.964;2023-06-26T01:51:30;5.35;;;4.25;;
58015;SDS011;43809;52.110;20.964;2023-06-26T01:53:32;4.30;;;3.22;;
58015;SDS011;43809;52.110;20.964;2023-06-26T01:55:41;7.20;;;5.22;;
58015;SDS011;43809;52.110;20.964;2023-06-26T01:57:45;6.70;;;4.70;;
58015;SDS011;43809;52.110;20.964;2023-06-26T01:59:46;5.22;;;3.92;;
58015;SDS011;43809;52.110;20.964;2023-06-26T02:01:56;5.50;;;3.80;;
58015;SDS011;43809;52.110;20.964;2023-06-26T02:03:56;4.43;;;3.30;;
58015;SDS011;43809;52.110;20.964;2023-06-26T02:05:56;5.60;;;3.00;;
58015;SDS011;43809;52.110;20.964;2023-06-26T02:07:56;3.77;;;3.20;;
58015;SDS011;43809;52.110;20.964;2023-06-26T02:09:57;5.15;;;3.35;;
58015;SDS011;43809;52.110;20.964;2023-06-26T02:11:57;4.93;;;2.70;;
58015;SDS011;43809;52.110;20.964;2023-06-26T02:13:57;6.25;;;3.40;;
58015;SDS011;43809;52.110;20.964;2023-06-26T02:15:57;7.97;;;3.85;;
58015;SDS011;43809;52.110;20.964;2023-06-26T02:17:58;6.15;;;2.83;;
58015;SDS011;43809;52.110;20.964;2023-06-26T02:19:58;6.37;;;3.00;;
58015;SDS011;43809;52.110;20.964;2023-06-26T02:21:59;41.28;;;7.68;;
58015;SDS011;43809;52.110;20.964;2023-06-26T02:24:00;21.60;;;6.57;;
58015;SDS011;43809;52.110;20.964;2023-06-26T02:26:00;12.27;;;4.93;;
58015;SDS011;43809;52.110;20.964;2023-06-26T02:28:00;17.08;;;6.25;;
58015;SDS011;43809;52.110;20.964;2023-06-26T02:30:01;9.95;;;5.05;;
58015;SDS011;43809;52.110;20.964;2023-06-26T02:32:01;9.68;;;5.30;;
58015;SDS011;43809;52.110;20.964;2023-06-26T02:36:30;13.18;;;6.03;;
58015;SDS011;43809;52.110;20.964;2023-06-26T02:38:32;9.50;;;5.30;;
58015;SDS011;43809;52.110;20.964;2023-06-26T02:40:32;8.55;;;5.20;;
58015;SDS011;43809;52.110;20.964;2023-06-26T02:42:34;8.70;;;5.75;;
58015;SDS011;43809;52.110;20.964;2023-06-26T02:44:34;10.48;;;5.40;;
58015;SDS011;43809;52.110;20.964;2023-06-26T02:46:34;8.75;;;5.45;;
58015;SDS011;43809;52.110;20.964;2023-06-26T02:48:35;8.93;;;5.30;;
58015;SDS011;43809;52.110;20.964;2023-06-26T02:50:35;5.60;;;4.27;;
58015;SDS011;43809;52.110;20.964;2023-06-26T02:52:35;5.83;;;3.90;;
58015;SDS011;43809;52.110;20.964;2023-06-26T02:54:35;4.32;;;3.20;;
58015;SDS011;43809;52.110;20.964;2023-06-26T02:56:36;6.47;;;3.53;;
58015;SDS011;43809;52.110;20.964;2023-06-26T02:58:36;5.23;;;3.87;;
58015;SDS011;43809;52.110;20.964;2023-06-26T03:00:36;6.47;;;4.10;;
58015;SDS011;43809;52.110;20.964;2023-06-26T03:02:41;7.88;;;3.88;;
58015;SDS011;43809;52.110;20.964;2023-06-26T03:04:41;5.73;;;3.70;;
58015;SDS011;43809;52.110;20.964;2023-06-26T03:06:43;5.00;;;3.73;;
58015;SDS011;43809;52.110;20.964;2023-06-26T03:08:52;4.45;;;3.17;;
58015;SDS011;43809;52.110;20.964;2023-06-26T03:10:53;3.10;;;2.40;;
58015;SDS011;43809;52.110;20.964;2023-06-26T03:12:53;5.70;;;3.00;;
58015;SDS011;43809;52.110;20.964;2023-06-26T03:14:54;4.05;;;2.58;;
58015;SDS011;43809;52.110;20.964;2023-06-26T03:16:54;4.30;;;3.00;;
58015;SDS011;43809;52.110;20.964;2023-06-26T03:18:57;3.58;;;2.30;;
58015;SDS011;43809;52.110;20.964;2023-06-26T03:20:58;5.13;;;2.73;;
58015;SDS011;43809;52.110;20.964;2023-06-26T03:22:59;3.75;;;2.38;;
58015;SDS011;43809;52.110;20.964;2023-06-26T03:24:59;3.05;;;2.35;;
58015;SDS011;43809;52.110;20.964;2023-06-26T03:27:00;3.63;;;2.70;;
58015;SDS011;43809;52.110;20.964;2023-06-26T03:29:00;3.57;;;2.60;;
58015;SDS011;43809;52.110;20.964;2023-06-26T03:31:02;3.17;;;2.60;;
58015;SDS011;43809;52.110;20.964;2023-06-26T03:33:02;3.92;;;2.63;;
58015;SDS011;43809;52.110;20.964;2023-06-26T03:35:03;2.70;;;2.20;;
58015;SDS011;43809;52.110;20.964;2023-06-26T03:37:03;4.82;;;2.50;;
58015;SDS011;43809;52.110;20.964;2023-06-26T03:39:03;2.53;;;2.15;;
58015;SDS011;43809;52.110;20.964;2023-06-26T03:41:04;5.30;;;2.55;;
58015;SDS011;43809;52.110;20.964;2023-06-26T03:43:04;4.55;;;3.05;;
58015;SDS011;43809;52.110;20.964;2023-06-26T03:45:04;5.90;;;3.90;;
58015;SDS011;43809;52.110;20.964;2023-06-26T03:47:05;6.82;;;3.67;;
58015;SDS011;43809;52.110;20.964;2023-06-26T03:49:05;5.10;;;3.63;;
58015;SDS011;43809;52.110;20.964;2023-06-26T03:51:06;6.50;;;3.80;;
58015;SDS011;43809;52.110;20.964;2023-06-26T03:53:06;8.43;;;4.50;;
58015;SDS011;43809;52.110;20.964;2023-06-26T03:55:07;9.33;;;5.13;;
58015;SDS011;43809;52.110;20.964;2023-06-26T03:57:07;6.47;;;4.50;;
58015;SDS011;43809;52.110;20.964;2023-06-26T03:59:08;6.43;;;4.63;;
58015;SDS011;43809;52.110;20.964;2023-06-26T04:03:31;3.28;;;2.63;;
58015;SDS011;43809;52.110;20.964;2023-06-26T04:05:31;6.53;;;3.35;;
58015;SDS011;43809;52.110;20.964;2023-06-26T04:07:31;4.40;;;3.20;;
58015;SDS011;43809;52.110;20.964;2023-06-26T04:09:44;7.77;;;4.00;;
58015;SDS011;43809;52.110;20.964;2023-06-26T04:11:45;6.82;;;4.50;;
58015;SDS011;43809;52.110;20.964;2023-06-26T04:13:45;5.45;;;3.83;;
58015;SDS011;43809;52.110;20.964;2023-06-26T04:15:45;5.77;;;4.17;;
58015;SDS011;43809;52.110;20.964;2023-06-26T04:17:45;7.10;;;4.82;;
58015;SDS011;43809;52.110;20.964;2023-06-26T04:19:45;5.25;;;3.33;;
58015;SDS011;43809;52.110;20.964;2023-06-26T04:21:46;4.03;;;3.17;;
58015;SDS011;43809;52.110;20.964;2023-06-26T04:23:46;7.15;;;4.65;;
58015;SDS011;43809;52.110;20.964;2023-06-26T04:25:47;5.00;;;3.80;;
58015;SDS011;43809;52.110;20.964;2023-06-26T04:27:47;7.45;;;4.50;;
58015;SDS011;43809;52.110;20.964;2023-06-26T04:29:48;12.30;;;5.20;;
58015;SDS011;43809;52.110;20.964;2023-06-26T04:31:48;11.80;;;5.30;;
58015;SDS011;43809;52.110;20.964;2023-06-26T04:33:50;8.25;;;4.53;;
58015;SDS011;43809;52.110;20.964;2023-06-26T04:35:51;7.30;;;3.88;;
58015;SDS011;43809;52.110;20.964;2023-06-26T04:37:51;7.50;;;4.88;;
58015;SDS011;43809;52.110;20.964;2023-06-26T04:39:51;10.50;;;5.57;;
58015;SDS011;43809;52.110;20.964;2023-06-26T04:41:52;8.00;;;5.13;;
58015;SDS011;43809;52.110;20.964;2023-06-26T04:43:52;23.42;;;7.43;;
58015;SDS011;43809;52.110;20.964;2023-06-26T04:48:20;8.85;;;4.47;;
58015;SDS011;43809;52.110;20.964;2023-06-26T04:50:20;8.20;;;5.03;;
58015;SDS011;43809;52.110;20.964;2023-06-26T04:52:20;5.57;;;4.72;;
58015;SDS011;43809;52.110;20.964;2023-06-26T04:54:21;8.23;;;5.07;;
58015;SDS011;43809;52.110;20.964;2023-06-26T04:56:21;6.32;;;4.60;;
58015;SDS011;43809;52.110;20.964;2023-06-26T04:58:22;6.20;;;4.30;;
58015;SDS011;43809;52.110;20.964;2023-06-26T05:00:22;11.30;;;4.23;;
58015;SDS011;43809;52.110;20.964;2023-06-26T05:02:22;4.82;;;3.65;;
58015;SDS011;43809;52.110;20.964;2023-06-26T05:04:22;3.88;;;3.45;;
58015;SDS011;43809;52.110;20.964;2023-06-26T05:06:40;5.88;;;3.38;;
58015;SDS011;43809;52.110;20.964;2023-06-26T05:08:40;9.65;;;5.20;;
58015;SDS011;43809;52.110;20.964;2023-06-26T05:10:40;10.43;;;5.55;;
58015;SDS011;43809;52.110;20.964;2023-06-26T05:12:41;6.93;;;5.00;;
58015;SDS011;43809;52.110;20.964;2023-06-26T05:14:41;4.68;;;3.90;;
58015;SDS011;43809;52.110;20.964;2023-06-26T05:16:41;4.90;;;3.97;;
58015;SDS011;43809;52.110;20.964;2023-06-26T05:24:00;4.35;;;3.85;;
58015;SDS011;43809;52.110;20.964;2023-06-26T05:26:02;5.82;;;3.78;;
58015;SDS011;43809;52.110;20.964;2023-06-26T05:28:03;4.43;;;3.90;;
58015;SDS011;43809;52.110;20.964;2023-06-26T05:30:05;4.72;;;3.63;;
58015;SDS011;43809;52.110;20.964;2023-06-26T05:32:05;5.77;;;4.57;;
58015;SDS011;43809;52.110;20.964;2023-06-26T05:36:36;7.68;;;4.40;;
58015;SDS011;43809;52.110;20.964;2023-06-26T05:38:37;5.00;;;4.37;;
58015;SDS011;43809;52.110;20.964;2023-06-26T05:40:37;3.10;;;2.77;;
58015;SDS011;43809;52.110;20.964;2023-06-26T05:42:37;5.67;;;4.50;;
58015;SDS011;43809;52.110;20.964;2023-06-26T05:44:37;6.87;;;4.60;;
58015;SDS011;43809;52.110;20.964;2023-06-26T05:46:38;7.23;;;4.27;;
58015;SDS011;43809;52.110;20.964;2023-06-26T05:48:38;4.97;;;3.80;;
58015;SDS011;43809;52.110;20.964;2023-06-26T05:50:39;4.53;;;3.65;;
58015;SDS011;43809;52.110;20.964;2023-06-26T05:52:41;7.57;;;4.45;;
58015;SDS011;43809;52.110;20.964;2023-06-26T05:54:44;4.60;;;3.50;;
58015;SDS011;43809;52.110;20.964;2023-06-26T05:56:44;7.03;;;4.63;;
58015;SDS011;43809;52.110;20.964;2023-06-26T05:59:02;7.68;;;4.80;;
58015;SDS011;43809;52.110;20.964;2023-06-26T06:01:03;4.93;;;3.53;;
58015;SDS011;43809;52.110;20.964;2023-06-26T06:03:03;4.80;;;3.90;;
58015;SDS011;43809;52.110;20.964;2023-06-26T06:05:05;4.00;;;3.43;;
58015;SDS011;43809;52.110;20.964;2023-06-26T06:07:05;4.75;;;2.97;;
58015;SDS011;43809;52.110;20.964;2023-06-26T06:09:05;3.43;;;3.13;;
58015;SDS011;43809;52.110;20.964;2023-06-26T06:11:05;3.73;;;3.43;;
58015;SDS011;43809;52.110;20.964;2023-06-26T06:13:06;4.20;;;3.80;;
58015;SDS011;43809;52.110;20.964;2023-06-26T06:15:06;4.27;;;3.90;;
58015;SDS011;43809;52.110;20.964;2023-06-26T06:17:06;5.10;;;3.23;;
58015;SDS011;43809;52.110;20.964;2023-06-26T06:19:06;3.10;;;2.80;;
58015;SDS011;43809;52.110;20.964;2023-06-26T06:21:07;4.50;;;4.00;;
58015;SDS011;43809;52.110;20.964;2023-06-26T06:23:08;4.77;;;3.63;;
58015;SDS011;43809;52.110;20.964;2023-06-26T06:25:08;3.60;;;3.30;;
58015;SDS011;43809;52.110;20.964;2023-06-26T06:27:08;4.57;;;3.10;;
58015;SDS011;43809;52.110;20.964;2023-06-26T06:29:08;5.33;;;3.33;;
58015;SDS011;43809;52.110;20.964;2023-06-26T06:31:09;5.73;;;3.60;;
58015;SDS011;43809;52.110;20.964;2023-06-26T06:33:09;6.10;;;4.30;;
58015;SDS011;43809;52.110;20.964;2023-06-26T06:35:09;4.43;;;3.83;;
58015;SDS011;43809;52.110;20.964;2023-06-26T06:37:09;4.67;;;3.93;;
58015;SDS011;43809;52.110;20.964;2023-06-26T06:39:10;3.40;;;3.10;;
58015;SDS011;43809;52.110;20.964;2023-06-26T06:41:10;4.00;;;3.10;;
58015;SDS011;43809;52.110;20.964;2023-06-26T06:43:10;4.93;;;3.23;;
58015;SDS011;43809;52.110;20.964;2023-06-26T06:45:10;4.77;;;3.67;;
58015;SDS011;43809;52.110;20.964;2023-06-26T06:47:10;6.17;;;4.67;;
58015;SDS011;43809;52.110;20.964;2023-06-26T06:49:11;3.73;;;3.40;;
58015;SDS011;43809;52.110;20.964;2023-06-26T06:51:11;6.00;;;4.30;;
58015;SDS011;43809;52.110;20.964;2023-06-26T06:53:11;3.53;;;3.20;;
58015;SDS011;43809;52.110;20.964;2023-06-26T06:55:11;5.03;;;2.67;;
58015;SDS011;43809;52.110;20.964;2023-06-26T06:57:12;9.77;;;3.93;;
58015;SDS011;43809;52.110;20.964;2023-06-26T06:59:12;5.87;;;3.17;;
58015;SDS011;43809;52.110;20.964;2023-06-26T07:01:14;3.77;;;2.60;;
58015;SDS011;43809;52.110;20.964;2023-06-26T07:03:14;5.22;;;3.05;;
58015;SDS011;43809;52.110;20.964;2023-06-26T07:05:15;2.90;;;2.60;;
58015;SDS011;43809;52.110;20.964;2023-06-26T07:07:18;3.58;;;3.00;;
58015;SDS011;43809;52.110;20.964;2023-06-26T07:09:18;6.45;;;3.38;;
58015;SDS011;43809;52.110;20.964;2023-06-26T07:11:18;5.90;;;3.40;;
58015;SDS011;43809;52.110;20.964;2023-06-26T07:13:19;5.07;;;3.37;;
58015;SDS011;43809;52.110;20.964;2023-06-26T07:15:20;4.35;;;3.80;;
58015;SDS011;43809;52.110;20.964;2023-06-26T07:17:20;3.80;;;3.40;;
58015;SDS011;43809;52.110;20.964;2023-06-26T07:19:21;3.40;;;3.10;;
58015;SDS011;43809;52.110;20.964;2023-06-26T07:21:22;3.60;;;3.30;;
58015;SDS011;43809;52.110;20.964;2023-06-26T07:23:22;3.60;;;3.25;;
58015;SDS011;43809;52.110;20.964;2023-06-26T07:25:22;5.80;;;3.67;;
58015;SDS011;43809;52.110;20.964;2023-06-26T07:27:23;3.43;;;3.13;;
58015;SDS011;43809;52.110;20.964;2023-06-26T07:29:25;6.20;;;3.77;;
58015;SDS011;43809;52.110;20.964;2023-06-26T07:31:25;3.50;;;3.20;;
58015;SDS011;43809;52.110;20.964;2023-06-26T07:33:25;8.20;;;3.43;;
58015;SDS011;43809;52.110;20.964;2023-06-26T07:35:25;2.80;;;2.50;;
58015;SDS011;43809;52.110;20.964;2023-06-26T07:37:27;2.60;;;2.40;;
58015;SDS011;43809;52.110;20.964;2023-06-26T07:39:27;3.30;;;2.70;;
58015;SDS011;43809;52.110;20.964;2023-06-26T07:41:27;5.07;;;3.00;;
58015;SDS011;43809;52.110;20.964;2023-06-26T07:43:30;6.25;;;3.60;;
58015;SDS011;43809;52.110;20.964;2023-06-26T07:45:31;3.13;;;2.83;;
58015;SDS011;43809;52.110;20.964;2023-06-26T07:47:31;5.43;;;3.93;;
58015;SDS011;43809;52.110;20.964;2023-06-26T07:49:31;4.40;;;3.30;;
58015;SDS011;43809;52.110;20.964;2023-06-26T07:51:31;7.87;;;3.80;;
58015;SDS011;43809;52.110;20.964;2023-06-26T07:53:46;4.00;;;3.40;;
58015;SDS011;43809;52.110;20.964;2023-06-26T07:55:46;4.05;;;3.65;;
58015;SDS011;43809;52.110;20.964;2023-06-26T07:57:46;3.40;;;3.10;;
58015;SDS011;43809;52.110;20.964;2023-06-26T07:59:46;5.13;;;3.50;;
58015;SDS011;43809;52.110;20.964;2023-06-26T08:01:47;11.00;;;4.27;;
58015;SDS011;43809;52.110;20.964;2023-06-26T08:03:47;4.80;;;3.27;;
58015;SDS011;43809;52.110;20.964;2023-06-26T08:05:53;3.97;;;3.50;;
58015;SDS011;43809;52.110;20.964;2023-06-26T08:07:53;6.53;;;3.45;;
58015;SDS011;43809;52.110;20.964;2023-06-26T08:09:54;5.03;;;3.40;;
58015;SDS011;43809;52.110;20.964;2023-06-26T08:11:54;5.17;;;3.37;;
58015;SDS011;43809;52.110;20.964;2023-06-26T08:16:23;4.28;;;3.60;;
58015;SDS011;43809;52.110;20.964;2023-06-26T08:18:23;11.53;;;4.63;;
58015;SDS011;43809;52.110;20.964;2023-06-26T08:20:23;4.77;;;3.50;;
58015;SDS011;43809;52.110;20.964;2023-06-26T08:22:24;3.60;;;2.70;;
58015;SDS011;43809;52.110;20.964;2023-06-26T08:24:24;3.77;;;2.80;;
58015;SDS011;43809;52.110;20.964;2023-06-26T08:26:24;4.63;;;3.40;;
58015;SDS011;43809;52.110;20.964;2023-06-26T08:28:24;7.50;;;3.97;;
58015;SDS011;43809;52.110;20.964;2023-06-26T08:30:24;3.97;;;3.50;;
58015;SDS011;43809;52.110;20.964;2023-06-26T08:32:27;4.15;;;3.53;;
58015;SDS011;43809;52.110;20.964;2023-06-26T08:34:28;3.20;;;2.90;;
58015;SDS011;43809;52.110;20.964;2023-06-26T08:36:28;3.30;;;3.00;;
58015;SDS011;43809;52.110;20.964;2023-06-26T08:43:30;3.33;;;3.03;;
58015;SDS011;43809;52.110;20.964;2023-06-26T08:45:30;3.50;;;3.20;;
58015;SDS011;43809;52.110;20.964;2023-06-26T08:47:31;5.23;;;3.80;;
58015;SDS011;43809;52.110;20.964;2023-06-26T08:49:53;4.22;;;3.30;;
58015;SDS011;43809;52.110;20.964;2023-06-26T08:51:58;4.80;;;3.58;;
58015;SDS011;43809;52.110;20.964;2023-06-26T08:54:01;4.25;;;3.50;;
58015;SDS011;43809;52.110;20.964;2023-06-26T08:56:01;7.23;;;3.60;;
58015;SDS011;43809;52.110;20.964;2023-06-26T08:58:01;4.10;;;3.03;;
58015;SDS011;43809;52.110;20.964;2023-06-26T09:00:02;4.33;;;3.30;;
58015;SDS011;43809;52.110;20.964;2023-06-26T09:02:02;3.47;;;3.13;;
58015;SDS011;43809;52.110;20.964;2023-06-26T09:04:03;3.80;;;3.30;;
58015;SDS011;43809;52.110;20.964;2023-06-26T09:06:03;3.33;;;2.97;;
58015;SDS011;43809;52.110;20.964;2023-06-26T09:08:03;3.07;;;2.77;;
58015;SDS011;43809;52.110;20.964;2023-06-26T09:10:04;3.33;;;3.00;;
58015;SDS011;43809;52.110;20.964;2023-06-26T09:12:04;3.40;;;3.10;;
58015;SDS011;43809;52.110;20.964;2023-06-26T09:14:04;4.23;;;3.30;;
58015;SDS011;43809;52.110;20.964;2023-06-26T09:16:07;3.35;;;2.88;;
58015;SDS011;43809;52.110;20.964;2023-06-26T09:18:08;4.03;;;3.03;;
58015;SDS011;43809;52.110;20.964;2023-06-26T09:20:08;3.63;;;3.30;;
58015;SDS011;43809;52.110;20.964;2023-06-26T09:22:11;3.87;;;3.10;;
58015;SDS011;43809;52.110;20.964;2023-06-26T09:24:13;5.47;;;3.60;;
58015;SDS011;43809;52.110;20.964;2023-06-26T09:26:13;3.00;;;2.70;;
58015;SDS011;43809;52.110;20.964;2023-06-26T09:28:14;4.53;;;2.83;;
58015;SDS011;43809;52.110;20.964;2023-06-26T09:30:17;2.80;;;2.50;;
58015;SDS011;43809;52.110;20.964;2023-06-26T09:32:18;2.92;;;2.67;;
58015;SDS011;43809;52.110;20.964;2023-06-26T09:34:18;3.47;;;3.00;;
58015;SDS011;43809;52.110;20.964;2023-06-26T09:39:04;4.00;;;3.33;;
58015;SDS011;43809;52.110;20.964;2023-06-26T09:41:08;4.32;;;3.40;;
58015;SDS011;43809;52.110;20.964;2023-06-26T09:43:09;4.17;;;2.80;;
58015;SDS011;43809;52.110;20.964;2023-06-26T09:45:16;7.50;;;3.50;;
58015;SDS011;43809;52.110;20.964;2023-06-26T09:47:20;13.13;;;4.32;;
58015;SDS011;43809;52.110;20.964;2023-06-26T09:49:20;7.75;;;3.50;;
58015;SDS011;43809;52.110;20.964;2023-06-26T09:51:22;9.00;;;3.60;;
58015;SDS011;43809;52.110;20.964;2023-06-26T09:53:37;6.57;;;3.67;;
58015;SDS011;43809;52.110;20.964;2023-06-26T09:55:37;3.25;;;2.95;;
58015;SDS011;43809;52.110;20.964;2023-06-26T09:57:38;3.37;;;2.87;;
58015;SDS011;43809;52.110;20.964;2023-06-26T09:59:39;3.93;;;3.23;;
58015;SDS011;43809;52.110;20.964;2023-06-26T10:01:47;3.33;;;3.03;;
58015;SDS011;43809;52.110;20.964;2023-06-26T10:03:47;22.13;;;5.85;;
58015;SDS011;43809;52.110;20.964;2023-06-26T10:05:47;7.80;;;4.20;;
58015;SDS011;43809;52.110;20.964;2023-06-26T10:07:48;8.23;;;4.00;;
58015;SDS011;43809;52.110;20.964;2023-06-26T10:09:54;5.05;;;3.80;;
58015;SDS011;43809;52.110;20.964;2023-06-26T10:11:56;11.23;;;4.32;;
58015;SDS011;43809;52.110;20.964;2023-06-26T10:14:04;4.45;;;2.88;;
58015;SDS011;43809;52.110;20.964;2023-06-26T10:16:07;3.80;;;3.30;;
58015;SDS011;43809;52.110;20.964;2023-06-26T10:18:07;10.63;;;3.80;;
58015;SDS011;43809;52.110;20.964;2023-06-26T10:20:08;17.80;;;5.07;;
58015;SDS011;43809;52.110;20.964;2023-06-26T10:22:09;6.10;;;3.83;;
58015;SDS011;43809;52.110;20.964;2023-06-26T10:24:11;5.25;;;3.75;;
58015;SDS011;43809;52.110;20.964;2023-06-26T10:26:12;4.57;;;2.70;;
58015;SDS011;43809;52.110;20.964;2023-06-26T10:30:39;4.40;;;3.58;;
58015;SDS011;43809;52.110;20.964;2023-06-26T10:32:40;5.37;;;3.20;;
58015;SDS011;43809;52.110;20.964;2023-06-26T10:34:41;2.90;;;2.60;;
58015;SDS011;43809;52.110;20.964;2023-06-26T10:36:41;3.53;;;2.87;;
58015;SDS011;43809;52.110;20.964;2023-06-26T10:46:10;4.22;;;3.42;;
58015;SDS011;43809;52.110;20.964;2023-06-26T10:48:12;7.40;;;4.07;;
58015;SDS011;43809;52.110;20.964;2023-06-26T10:52:26;3.10;;;2.80;;
58015;SDS011;43809;52.110;20.964;2023-06-26T10:54:28;3.60;;;3.30;;
58015;SDS011;43809;52.110;20.964;2023-06-26T10:56:41;4.50;;;3.60;;
58015;SDS011;43809;52.110;20.964;2023-06-26T10:58:42;3.67;;;3.25;;
58015;SDS011;43809;52.110;20.964;2023-06-26T11:00:49;3.30;;;3.00;;
58015;SDS011;43809;52.110;20.964;2023-06-26T11:02:52;3.63;;;2.97;;
58015;SDS011;43809;52.110;20.964;2023-06-26T11:04:53;3.47;;;3.17;;
58015;SDS011;43809;52.110;20.964;2023-06-26T11:07:14;3.25;;;2.95;;
58015;SDS011;43809;52.110;20.964;2023-06-26T11:09:15;3.72;;;3.42;;
58015;SDS011;43809;52.110;20.964;2023-06-26T11:11:16;3.38;;;3.08;;
58015;SDS011;43809;52.110;20.964;2023-06-26T11:13:17;3.33;;;3.03;;
58015;SDS011;43809;52.110;20.964;2023-06-26T11:15:18;3.33;;;3.03;;
58015;SDS011;43809;52.110;20.964;2023-06-26T11:17:19;3.60;;;3.30;;
58015;SDS011;43809;52.110;20.964;2023-06-26T11:19:35;7.60;;;4.10;;
58015;SDS011;43809;52.110;20.964;2023-06-26T11:21:36;3.45;;;3.15;;
58015;SDS011;43809;52.110;20.964;2023-06-26T11:23:37;3.65;;;2.95;;
58015;SDS011;43809;52.110;20.964;2023-06-26T11:25:38;3.77;;;3.10;;
58015;SDS011;43809;52.110;20.964;2023-06-26T11:29:38;5.90;;;3.20;;
58015;SDS011;43809;52.110;20.964;2023-06-26T11:31:47;4.38;;;2.72;;
58015;SDS011;43809;52.110;20.964;2023-06-26T11:33:47;7.23;;;3.20;;
58015;SDS011;43809;52.110;20.964;2023-06-26T11:35:47;3.67;;;3.20;;
58015;SDS011;43809;52.110;20.964;2023-06-26T11:37:47;3.87;;;3.20;;
58015;SDS011;43809;52.110;20.964;2023-06-26T11:39:47;3.80;;;3.10;;
58015;SDS011;43809;52.110;20.964;2023-06-26T11:41:48;3.27;;;2.97;;
58015;SDS011;43809;52.110;20.964;2023-06-26T11:43:48;4.03;;;3.10;;
58015;SDS011;43809;52.110;20.964;2023-06-26T11:45:49;3.93;;;3.00;;
58015;SDS011;43809;52.110;20.964;2023-06-26T11:47:49;3.47;;;2.80;;
58015;SDS011;43809;52.110;20.964;2023-06-26T11:49:50;7.10;;;3.43;;
58015;SDS011;43809;52.110;20.964;2023-06-26T11:51:51;5.27;;;3.20;;
58015;SDS011;43809;52.110;20.964;2023-06-26T11:53:51;3.10;;;2.80;;
58015;SDS011;43809;52.110;20.964;2023-06-26T11:55:52;3.20;;;2.90;;
58015;SDS011;43809;52.110;20.964;2023-06-26T11:57:53;3.37;;;3.07;;
58015;SDS011;43809;52.110;20.964;2023-06-26T11:59:53;3.22;;;2.92;;
58015;SDS011;43809;52.110;20.964;2023-06-26T12:01:54;2.83;;;2.60;;
58015;SDS011;43809;52.110;20.964;2023-06-26T12:03:58;3.73;;;3.13;;
58015;SDS011;43809;52.110;20.964;2023-06-26T12:05:59;3.35;;;2.90;;
58015;SDS011;43809;52.110;20.964;2023-06-26T12:08:01;3.08;;;2.63;;
58015;SDS011;43809;52.110;20.964;2023-06-26T12:10:03;2.67;;;2.47;;
58015;SDS011;43809;52.110;20.964;2023-06-26T12:12:08;4.70;;;2.73;;
58015;SDS011;43809;52.110;20.964;2023-06-26T12:14:08;3.88;;;2.80;;
58015;SDS011;43809;52.110;20.964;2023-06-26T12:16:09;4.17;;;2.53;;
58015;SDS011;43809;52.110;20.964;2023-06-26T12:18:10;2.80;;;2.25;;
58015;SDS011;43809;52.110;20.964;2023-06-26T12:20:23;2.83;;;2.57;;
58015;SDS011;43809;52.110;20.964;2023-06-26T12:22:23;2.65;;;2.30;;
58015;SDS011;43809;52.110;20.964;2023-06-26T12:24:35;3.13;;;2.57;;
58015;SDS011;43809;52.110;20.964;2023-06-26T12:26:36;7.07;;;2.80;;
58015;SDS011;43809;52.110;20.964;2023-06-26T12:28:37;5.20;;;3.00;;
58015;SDS011;43809;52.110;20.964;2023-06-26T12:30:37;5.23;;;2.57;;
58015;SDS011;43809;52.110;20.964;2023-06-26T12:32:38;5.07;;;2.60;;
58015;SDS011;43809;52.110;20.964;2023-06-26T12:34:38;2.97;;;2.40;;
58015;SDS011;43809;52.110;20.964;2023-06-26T12:36:39;2.23;;;2.03;;
58015;SDS011;43809;52.110;20.964;2023-06-26T12:38:42;3.03;;;2.33;;
58015;SDS011;43809;52.110;20.964;2023-06-26T12:40:45;3.50;;;2.35;;
58015;SDS011;43809;52.110;20.964;2023-06-26T12:42:45;3.40;;;2.70;;
58015;SDS011;43809;52.110;20.964;2023-06-26T12:47:17;3.88;;;3.00;;